sensor_id;sensor_type;location;lat;lon;timestamp;pressure;altitude;pressure_sealevel;temperature;humidity
59106;BME280;44891;50.204;8.132;2023-02-18T00:01:02;98964.63;;;10.55;99.87
59106;BME280;44891;50.204;8.132;2023-02-18T00:05:04;98952.19;;;10.50;100.00
59106;BME280;44891;50.204;8.132;2023-02-18T00:09:06;98962.75;;;10.44;100.00
59106;BME280;44891;50.204;8.132;2023-02-18T00:13:10;98963.97;;;10.41;100.00
59106;BME280;44891;50.204;8.132;2023-02-18T00:17:12;98968.66;;;10.39;100.00
59106;BME280;44891;50.204;8.132;2023-02-18T00:21:13;98971.34;;;10.32;100.00
59106;BME280;44891;50.204;8.132;2023-02-18T00:25:15;98974.53;;;10.34;100.00
59106;BME280;44891;50.204;8.132;2023-02-18T00:29:19;98975.34;;;10.35;100.00
59106;BME280;44891;50.204;8.132;2023-02-18T00:33:22;98966.09;;;10.32;100.00
59106;BME280;44891;50.204;8.132;2023-02-18T00:37:24;98968.34;;;10.29;100.00
59106;BME280;44891;50.204;8.132;2023-02-18T00:41:26;98967.38;;;10.23;100.00
59106;BME280;44891;50.204;8.132;2023-02-18T00:45:30;98969.59;;;10.26;100.00
59106;BME280;44891;50.204;8.132;2023-02-18T00:49:31;98976.25;;;10.22;100.00
59106;BME280;44891;50.204;8.132;2023-02-18T00:53:35;98973.63;;;10.22;100.00
59106;BME280;44891;50.204;8.132;2023-02-18T00:57:37;98976.88;;;10.24;100.00
59106;BME280;44891;50.204;8.132;2023-02-18T01:01:41;98972.47;;;10.18;100.00
59106;BME280;44891;50.204;8.132;2023-02-18T01:05:43;98970.25;;;10.15;100.00
59106;BME280;44891;50.204;8.132;2023-02-18T01:09:45;98979.16;;;10.14;100.00
59106;BME280;44891;50.204;8.132;2023-02-18T01:13:47;98975.78;;;10.07;100.00
59106;BME280;44891;50.204;8.132;2023-02-18T01:17:51;98963.13;;;10.04;100.00
59106;BME280;44891;50.204;8.132;2023-02-18T01:21:52;98960.13;;;10.00;100.00
59106;BME280;44891;50.204;8.132;2023-02-18T01:25:55;98958.34;;;9.94;100.00
59106;BME280;44891;50.204;8.132;2023-02-18T01:29:57;98962.00;;;9.93;100.00
59106;BME280;44891;50.204;8.132;2023-02-18T01:34:01;98950.69;;;9.93;100.00
59106;BME280;44891;50.204;8.132;2023-02-18T01:38:03;98939.19;;;9.94;100.00
59106;BME280;44891;50.204;8.132;2023-02-18T01:42:05;98938.59;;;9.92;100.00
59106;BME280;44891;50.204;8.132;2023-02-18T01:46:13;98936.38;;;9.89;100.00
59106;BME280;44891;50.204;8.132;2023-02-18T01:50:16;98935.97;;;9.92;100.00
59106;BME280;44891;50.204;8.132;2023-02-18T01:54:19;98940.19;;;9.93;100.00
59106;BME280;44891;50.204;8.132;2023-02-18T01:58:23;98931.38;;;9.87;100.00
59106;BME280;44891;50.204;8.132;2023-02-18T02:02:26;98921.50;;;9.82;100.00
59106;BME280;44891;50.204;8.132;2023-02-18T02:06:30;98922.38;;;9.76;100.00
59106;BME280;44891;50.204;8.132;2023-02-18T02:10:34;98917.56;;;9.73;100.00
59106;BME280;44891;50.204;8.132;2023-02-18T02:14:46;98919.75;;;9.76;100.00
59106;BME280;44891;50.204;8.132;2023-02-18T02:18:56;98923.56;;;9.80;100.00
59106;BME280;44891;50.204;8.132;2023-02-18T02:27:23;98900.22;;;9.72;100.00
59106;BME280;44891;50.204;8.132;2023-02-18T02:31:32;98904.16;;;9.81;100.00
59106;BME280;44891;50.204;8.132;2023-02-18T02:35:37;98887.84;;;9.79;100.00
59106;BME280;44891;50.204;8.132;2023-02-18T02:39:43;98889.91;;;9.77;100.00
59106;BME280;44891;50.204;8.132;2023-02-18T02:43:51;98888.88;;;9.78;100.00
59106;BME280;44891;50.204;8.132;2023-02-18T02:47:58;98881.81;;;9.79;100.00
59106;BME280;44891;50.204;8.132;2023-02-18T02:52:04;98887.69;;;9.74;100.00
59106;BME280;44891;50.204;8.132;2023-02-18T02:56:08;98887.28;;;9.77;100.00
59106;BME280;44891;50.204;8.132;2023-02-18T03:00:11;98882.59;;;9.79;100.00
59106;BME280;44891;50.204;8.132;2023-02-18T03:04:19;98889.44;;;9.80;100.00
59106;BME280;44891;50.204;8.132;2023-02-18T03:08:31;98875.94;;;9.77;100.00
59106;BME280;44891;50.204;8.132;2023-02-18T03:12:39;98870.94;;;9.75;100.00
59106;BME280;44891;50.204;8.132;2023-02-18T03:16:47;98869.91;;;9.76;100.00
59106;BME280;44891;50.204;8.132;2023-02-18T03:20:51;98882.72;;;9.66;100.00
59106;BME280;44891;50.204;8.132;2023-02-18T03:24:56;98881.69;;;9.67;100.00
59106;BME280;44891;50.204;8.132;2023-02-18T03:29:00;98881.69;;;9.67;100.00
59106;BME280;44891;50.204;8.132;2023-02-18T03:33:04;98882.50;;;9.68;100.00
59106;BME280;44891;50.204;8.132;2023-02-18T03:37:07;98874.69;;;9.61;100.00
59106;BME280;44891;50.204;8.132;2023-02-18T03:41:11;98881.31;;;9.64;100.00
59106;BME280;44891;50.204;8.132;2023-02-18T03:45:14;98873.03;;;9.67;100.00
59106;BME280;44891;50.204;8.132;2023-02-18T03:49:16;98866.81;;;9.61;100.00
59106;BME280;44891;50.204;8.132;2023-02-18T03:53:17;98854.56;;;9.55;100.00
59106;BME280;44891;50.204;8.132;2023-02-18T03:57:21;98850.75;;;9.58;100.00
59106;BME280;44891;50.204;8.132;2023-02-18T04:01:22;98847.03;;;9.65;100.00
59106;BME280;44891;50.204;8.132;2023-02-18T04:05:24;98843.06;;;9.56;100.00
59106;BME280;44891;50.204;8.132;2023-02-18T04:09:26;98836.16;;;9.62;100.00
59106;BME280;44891;50.204;8.132;2023-02-18T04:13:30;98837.75;;;9.63;100.00
59106;BME280;44891;50.204;8.132;2023-02-18T04:17:32;98832.91;;;9.66;100.00
59106;BME280;44891;50.204;8.132;2023-02-18T04:21:34;98829.88;;;9.63;100.00
59106;BME280;44891;50.204;8.132;2023-02-18T04:25:36;98835.75;;;9.65;100.00
59106;BME280;44891;50.204;8.132;2023-02-18T04:29:39;98830.28;;;9.66;100.00
59106;BME280;44891;50.204;8.132;2023-02-18T04:33:41;98845.44;;;9.64;100.00
59106;BME280;44891;50.204;8.132;2023-02-18T04:37:43;98840.75;;;9.66;100.00
59106;BME280;44891;50.204;8.132;2023-02-18T04:41:44;98836.91;;;9.69;100.00
59106;BME280;44891;50.204;8.132;2023-02-18T04:45:48;98833.38;;;9.57;100.00
59106;BME280;44891;50.204;8.132;2023-02-18T04:49:50;98820.19;;;9.63;100.00
59106;BME280;44891;50.204;8.132;2023-02-18T04:53:52;98813.34;;;9.62;100.00
59106;BME280;44891;50.204;8.132;2023-02-18T04:57:54;98825.03;;;9.66;100.00
59106;BME280;44891;50.204;8.132;2023-02-18T05:01:57;98817.16;;;9.66;100.00
59106;BME280;44891;50.204;8.132;2023-02-18T05:05:59;98820.59;;;9.67;100.00
59106;BME280;44891;50.204;8.132;2023-02-18T05:10:00;98809.66;;;9.70;100.00
59106;BME280;44891;50.204;8.132;2023-02-18T05:14:03;98800.78;;;9.71;100.00
59106;BME280;44891;50.204;8.132;2023-02-18T05:18:06;98792.53;;;9.67;100.00
59106;BME280;44891;50.204;8.132;2023-02-18T05:22:08;98802.22;;;9.67;100.00
59106;BME280;44891;50.204;8.132;2023-02-18T05:26:10;98799.03;;;9.65;100.00
59106;BME280;44891;50.204;8.132;2023-02-18T05:30:12;98785.91;;;9.65;100.00
59106;BME280;44891;50.204;8.132;2023-02-18T05:34:15;98801.44;;;9.66;100.00
59106;BME280;44891;50.204;8.132;2023-02-18T05:38:17;98779.72;;;9.59;100.00
59106;BME280;44891;50.204;8.132;2023-02-18T05:42:19;98776.66;;;9.62;100.00
59106;BME280;44891;50.204;8.132;2023-02-18T05:46:21;98773.06;;;9.57;100.00
59106;BME280;44891;50.204;8.132;2023-02-18T05:50:24;98769.06;;;9.54;100.00
59106;BME280;44891;50.204;8.132;2023-02-18T05:54:26;98754.34;;;9.53;100.00
59106;BME280;44891;50.204;8.132;2023-02-18T05:58:28;98747.53;;;9.52;100.00
59106;BME280;44891;50.204;8.132;2023-02-18T06:02:30;98750.56;;;9.49;100.00
59106;BME280;44891;50.204;8.132;2023-02-18T06:06:33;98748.16;;;9.47;100.00
59106;BME280;44891;50.204;8.132;2023-02-18T06:10:35;98740.69;;;9.51;100.00
59106;BME280;44891;50.204;8.132;2023-02-18T06:14:37;98727.34;;;9.52;100.00
59106;BME280;44891;50.204;8.132;2023-02-18T06:18:41;98741.31;;;9.46;100.00
59106;BME280;44891;50.204;8.132;2023-02-18T06:22:45;98752.03;;;9.45;100.00
59106;BME280;44891;50.204;8.132;2023-02-18T06:26:46;98736.72;;;9.42;100.00
59106;BME280;44891;50.204;8.132;2023-02-18T06:30:48;98743.72;;;9.48;100.00
59106;BME280;44891;50.204;8.132;2023-02-18T06:34:50;98752.22;;;9.43;100.00
59106;BME280;44891;50.204;8.132;2023-02-18T06:38:54;98747.03;;;9.37;100.00
59106;BME280;44891;50.204;8.132;2023-02-18T06:42:57;98736.56;;;9.37;100.00
59106;BME280;44891;50.204;8.132;2023-02-18T06:46:58;98747.72;;;9.32;100.00
59106;BME280;44891;50.204;8.132;2023-02-18T06:51:00;98751.72;;;9.35;100.00
59106;BME280;44891;50.204;8.132;2023-02-18T06:55:05;98739.06;;;9.32;100.00
59106;BME280;44891;50.204;8.132;2023-02-18T06:59:07;98733.53;;;9.40;100.00
59106;BME280;44891;50.204;8.132;2023-02-18T07:03:09;98743.38;;;9.44;100.00
59106;BME280;44891;50.204;8.132;2023-02-18T07:07:12;98740.13;;;9.42;100.00
59106;BME280;44891;50.204;8.132;2023-02-18T07:11:15;98731.06;;;9.45;100.00
59106;BME280;44891;50.204;8.132;2023-02-18T07:15:17;98738.31;;;9.43;100.00
59106;BME280;44891;50.204;8.132;2023-02-18T07:19:23;98742.19;;;9.40;100.00
59106;BME280;44891;50.204;8.132;2023-02-18T07:23:25;98741.38;;;9.40;100.00
59106;BME280;44891;50.204;8.132;2023-02-18T07:27:28;98740.94;;;9.43;100.00
59106;BME280;44891;50.204;8.132;2023-02-18T07:31:30;98736.56;;;9.37;100.00
59106;BME280;44891;50.204;8.132;2023-02-18T07:35:32;98731.31;;;9.37;100.00
59106;BME280;44891;50.204;8.132;2023-02-18T07:39:34;98740.81;;;9.38;100.00
59106;BME280;44891;50.204;8.132;2023-02-18T07:43:37;98741.06;;;9.30;100.00
59106;BME280;44891;50.204;8.132;2023-02-18T07:47:39;98746.69;;;9.33;99.49
59106;BME280;44891;50.204;8.132;2023-02-18T07:51:41;98734.38;;;9.34;95.55
59106;BME280;44891;50.204;8.132;2023-02-18T07:55:43;98728.91;;;9.35;96.03
59106;BME280;44891;50.204;8.132;2023-02-18T07:59:52;98677.41;;;9.04;95.80
59106;BME280;44891;50.204;8.132;2023-02-18T08:03:54;98715.09;;;9.28;95.92
59106;BME280;44891;50.204;8.132;2023-02-18T08:07:56;98720.31;;;9.28;94.08
59106;BME280;44891;50.204;8.132;2023-02-18T08:11:58;98727.97;;;9.30;92.39
59106;BME280;44891;50.204;8.132;2023-02-18T08:16:01;98730.47;;;9.24;91.64
59106;BME280;44891;50.204;8.132;2023-02-18T08:20:03;98736.84;;;9.29;90.02
59106;BME280;44891;50.204;8.132;2023-02-18T08:24:05;98737.44;;;9.31;90.43
59106;BME280;44891;50.204;8.132;2023-02-18T08:28:08;98745.66;;;9.34;90.68
59106;BME280;44891;50.204;8.132;2023-02-18T08:32:11;98769.03;;;9.36;90.01
59106;BME280;44891;50.204;8.132;2023-02-18T08:36:13;98754.56;;;9.33;89.21
59106;BME280;44891;50.204;8.132;2023-02-18T08:40:15;98753.31;;;9.36;89.00
59106;BME280;44891;50.204;8.132;2023-02-18T08:44:17;98751.50;;;9.36;89.37
59106;BME280;44891;50.204;8.132;2023-02-18T08:48:20;98758.06;;;9.45;88.68
59106;BME280;44891;50.204;8.132;2023-02-18T08:52:22;98753.41;;;9.47;87.67
59106;BME280;44891;50.204;8.132;2023-02-18T08:56:25;98752.16;;;9.50;87.09
59106;BME280;44891;50.204;8.132;2023-02-18T09:00:27;98768.03;;;9.55;87.44
59106;BME280;44891;50.204;8.132;2023-02-18T09:04:30;98763.81;;;9.54;87.73
59106;BME280;44891;50.204;8.132;2023-02-18T09:08:32;98758.75;;;9.59;85.12
59106;BME280;44891;50.204;8.132;2023-02-18T09:12:34;98751.91;;;9.58;85.62
59106;BME280;44891;50.204;8.132;2023-02-18T09:16:35;98754.63;;;9.63;84.46
59106;BME280;44891;50.204;8.132;2023-02-18T09:20:40;98766.75;;;9.64;83.58
59106;BME280;44891;50.204;8.132;2023-02-18T09:24:41;98760.34;;;9.60;84.38
59106;BME280;44891;50.204;8.132;2023-02-18T09:28:43;98769.81;;;9.61;83.42
59106;BME280;44891;50.204;8.132;2023-02-18T09:32:45;98778.84;;;9.65;83.36
59106;BME280;44891;50.204;8.132;2023-02-18T09:36:48;98798.22;;;9.64;83.79
59106;BME280;44891;50.204;8.132;2023-02-18T09:40:51;98784.50;;;9.62;82.95
59106;BME280;44891;50.204;8.132;2023-02-18T09:44:57;98789.34;;;9.65;82.77
59106;BME280;44891;50.204;8.132;2023-02-18T09:49:01;98792.97;;;9.64;83.54
59106;BME280;44891;50.204;8.132;2023-02-18T09:53:04;98781.66;;;9.64;82.83
59106;BME280;44891;50.204;8.132;2023-02-18T09:57:07;98790.56;;;9.63;82.96
59106;BME280;44891;50.204;8.132;2023-02-18T10:01:19;98767.34;;;9.66;83.98
59106;BME280;44891;50.204;8.132;2023-02-18T10:05:22;98765.72;;;9.65;83.55
59106;BME280;44891;50.204;8.132;2023-02-18T10:09:28;98767.50;;;9.71;84.13
59106;BME280;44891;50.204;8.132;2023-02-18T10:13:31;98753.19;;;9.67;84.80
59106;BME280;44891;50.204;8.132;2023-02-18T10:17:33;98753.66;;;9.64;85.53
59106;BME280;44891;50.204;8.132;2023-02-18T10:21:38;98761.94;;;9.61;86.07
59106;BME280;44891;50.204;8.132;2023-02-18T10:25:42;98763.03;;;9.53;86.72
59106;BME280;44891;50.204;8.132;2023-02-18T10:29:44;98765.19;;;9.57;87.54
59106;BME280;44891;50.204;8.132;2023-02-18T10:33:48;98750.13;;;9.52;87.46
59106;BME280;44891;50.204;8.132;2023-02-18T10:37:54;98764.28;;;9.51;88.41
59106;BME280;44891;50.204;8.132;2023-02-18T10:42:08;98762.94;;;9.42;88.79
59106;BME280;44891;50.204;8.132;2023-02-18T10:46:14;98759.28;;;9.43;87.96
59106;BME280;44891;50.204;8.132;2023-02-18T10:50:24;98758.44;;;9.49;88.11
59106;BME280;44891;50.204;8.132;2023-02-18T10:54:27;98740.69;;;9.51;85.57
59106;BME280;44891;50.204;8.132;2023-02-18T10:58:49;98743.66;;;9.54;85.82
59106;BME280;44891;50.204;8.132;2023-02-18T11:03:01;98740.97;;;9.61;84.40
59106;BME280;44891;50.204;8.132;2023-02-18T11:07:05;98731.66;;;9.65;84.61
59106;BME280;44891;50.204;8.132;2023-02-18T11:11:10;98731.66;;;9.65;84.23
59106;BME280;44891;50.204;8.132;2023-02-18T11:15:19;98729.44;;;9.62;84.13
59106;BME280;44891;50.204;8.132;2023-02-18T11:19:31;98724.91;;;9.69;82.47
59106;BME280;44891;50.204;8.132;2023-02-18T11:23:44;98729.75;;;9.72;82.38
59106;BME280;44891;50.204;8.132;2023-02-18T11:27:47;98712.59;;;9.70;82.96
59106;BME280;44891;50.204;8.132;2023-02-18T11:31:52;98728.41;;;9.63;83.09
59106;BME280;44891;50.204;8.132;2023-02-18T11:35:56;98709.47;;;9.61;82.87
59106;BME280;44891;50.204;8.132;2023-02-18T11:39:58;98693.53;;;9.63;82.83
59106;BME280;44891;50.204;8.132;2023-02-18T11:44:00;98693.75;;;9.61;84.03
59106;BME280;44891;50.204;8.132;2023-02-18T11:48:07;98673.94;;;9.65;84.10
59106;BME280;44891;50.204;8.132;2023-02-18T11:52:14;98668.25;;;9.68;84.74
59106;BME280;44891;50.204;8.132;2023-02-18T11:56:17;98673.34;;;9.63;84.28
59106;BME280;44891;50.204;8.132;2023-02-18T12:00:21;98657.66;;;9.75;84.25
59106;BME280;44891;50.204;8.132;2023-02-18T12:04:26;98645.19;;;9.89;83.07
59106;BME280;44891;50.204;8.132;2023-02-18T12:08:31;98632.19;;;9.94;82.86
59106;BME280;44891;50.204;8.132;2023-02-18T12:12:38;98625.75;;;10.08;82.66
59106;BME280;44891;50.204;8.132;2023-02-18T12:16:46;98633.81;;;10.25;82.63
59106;BME280;44891;50.204;8.132;2023-02-18T12:21:07;98639.75;;;10.32;81.88
59106;BME280;44891;50.204;8.132;2023-02-18T12:25:19;98645.03;;;10.44;82.06
59106;BME280;44891;50.204;8.132;2023-02-18T12:29:27;98644.00;;;10.45;83.42
59106;BME280;44891;50.204;8.132;2023-02-18T12:33:32;98633.72;;;10.43;83.22
59106;BME280;44891;50.204;8.132;2023-02-18T12:42:05;98654.38;;;10.40;87.08
59106;BME280;44891;50.204;8.132;2023-02-18T12:46:18;98641.59;;;10.31;89.97
59106;BME280;44891;50.204;8.132;2023-02-18T12:54:36;98665.94;;;10.20;93.95
59106;BME280;44891;50.204;8.132;2023-02-18T12:58:43;98664.78;;;10.16;93.66
59106;BME280;44891;50.204;8.132;2023-02-18T13:02:53;98668.91;;;10.12;96.86
59106;BME280;44891;50.204;8.132;2023-02-18T13:07:17;98673.09;;;10.13;98.77
59106;BME280;44891;50.204;8.132;2023-02-18T13:11:27;98669.91;;;10.11;97.00
59106;BME280;44891;50.204;8.132;2023-02-18T13:15:36;98679.22;;;10.25;95.52
59106;BME280;44891;50.204;8.132;2023-02-18T13:19:40;98664.28;;;10.26;95.00
59106;BME280;44891;50.204;8.132;2023-02-18T13:23:47;98670.69;;;10.42;93.14
59106;BME280;44891;50.204;8.132;2023-02-18T13:27:53;98662.78;;;10.30;95.60
59106;BME280;44891;50.204;8.132;2023-02-18T13:32:05;98607.56;;;9.95;95.15
59106;BME280;44891;50.204;8.132;2023-02-18T13:36:12;98658.78;;;10.27;97.18
59106;BME280;44891;50.204;8.132;2023-02-18T13:40:19;98659.09;;;10.19;96.99
59106;BME280;44891;50.204;8.132;2023-02-18T13:48:52;98664.53;;;10.06;94.72
59106;BME280;44891;50.204;8.132;2023-02-18T13:57:15;98668.28;;;10.10;95.10
59106;BME280;44891;50.204;8.132;2023-02-18T14:01:30;98666.13;;;10.07;93.95
59106;BME280;44891;50.204;8.132;2023-02-18T14:05:39;98667.94;;;10.25;95.27
59106;BME280;44891;50.204;8.132;2023-02-18T14:09:42;98671.50;;;10.30;95.50
59106;BME280;44891;50.204;8.132;2023-02-18T14:13:45;98676.25;;;10.03;97.36
59106;BME280;44891;50.204;8.132;2023-02-18T14:17:49;98663.38;;;10.02;97.58
59106;BME280;44891;50.204;8.132;2023-02-18T14:22:26;98668.28;;;10.10;97.71
59106;BME280;44891;50.204;8.132;2023-02-18T14:26:28;98659.94;;;10.01;98.49
59106;BME280;44891;50.204;8.132;2023-02-18T14:30:32;98650.06;;;10.15;97.97
59106;BME280;44891;50.204;8.132;2023-02-18T14:38:56;98655.75;;;10.54;93.28
59106;BME280;44891;50.204;8.132;2023-02-18T14:43:03;98660.19;;;10.42;92.94
59106;BME280;44891;50.204;8.132;2023-02-18T14:47:13;98650.28;;;10.44;93.29
59106;BME280;44891;50.204;8.132;2023-02-18T14:51:20;98659.16;;;10.43;92.59
59106;BME280;44891;50.204;8.132;2023-02-18T14:55:25;98663.03;;;10.28;93.49
59106;BME280;44891;50.204;8.132;2023-02-18T14:59:30;98655.75;;;10.30;93.03
59106;BME280;44891;50.204;8.132;2023-02-18T15:03:34;98659.81;;;10.26;92.55
59106;BME280;44891;50.204;8.132;2023-02-18T15:07:41;98655.03;;;10.35;93.18
59106;BME280;44891;50.204;8.132;2023-02-18T15:11:44;98653.47;;;10.16;92.64
59106;BME280;44891;50.204;8.132;2023-02-18T15:15:49;98655.50;;;10.32;92.94
59106;BME280;44891;50.204;8.132;2023-02-18T15:19:52;98658.25;;;10.07;93.58
59106;BME280;44891;50.204;8.132;2023-02-18T15:23:56;98654.56;;;9.96;94.25
59106;BME280;44891;50.204;8.132;2023-02-18T15:28:02;98654.03;;;10.06;94.08
59106;BME280;44891;50.204;8.132;2023-02-18T15:32:12;98643.41;;;10.01;92.14
59106;BME280;44891;50.204;8.132;2023-02-18T15:36:15;98651.72;;;9.98;93.41
59106;BME280;44891;50.204;8.132;2023-02-18T15:40:17;98648.34;;;9.79;94.66
59106;BME280;44891;50.204;8.132;2023-02-18T15:44:21;98659.78;;;9.85;93.99
59106;BME280;44891;50.204;8.132;2023-02-18T15:48:26;98647.66;;;9.84;93.84
59106;BME280;44891;50.204;8.132;2023-02-18T15:52:30;98652.34;;;9.81;93.23
59106;BME280;44891;50.204;8.132;2023-02-18T15:56:34;98656.78;;;9.81;94.73
59106;BME280;44891;50.204;8.132;2023-02-18T16:00:39;98639.53;;;9.73;94.23
59106;BME280;44891;50.204;8.132;2023-02-18T16:04:44;98641.84;;;9.81;93.36
59106;BME280;44891;50.204;8.132;2023-02-18T16:08:54;98650.19;;;9.78;93.60
59106;BME280;44891;50.204;8.132;2023-02-18T16:12:56;98597.13;;;9.46;93.08
59106;BME280;44891;50.204;8.132;2023-02-18T16:17:08;98647.84;;;9.70;93.01
59106;BME280;44891;50.204;8.132;2023-02-18T16:21:22;98646.13;;;9.64;93.55
59106;BME280;44891;50.204;8.132;2023-02-18T16:25:25;98652.81;;;9.60;94.20
59106;BME280;44891;50.204;8.132;2023-02-18T16:29:33;98658.22;;;9.65;94.19
59106;BME280;44891;50.204;8.132;2023-02-18T16:33:37;98653.63;;;9.61;93.85
59106;BME280;44891;50.204;8.132;2023-02-18T16:37:40;98660.69;;;9.60;94.44
59106;BME280;44891;50.204;8.132;2023-02-18T16:41:42;98654.06;;;9.58;93.45
59106;BME280;44891;50.204;8.132;2023-02-18T16:45:44;98662.13;;;9.56;93.64
59106;BME280;44891;50.204;8.132;2023-02-18T16:49:48;98665.78;;;9.55;94.39
59106;BME280;44891;50.204;8.132;2023-02-18T16:53:51;98673.31;;;9.51;94.67
59106;BME280;44891;50.204;8.132;2023-02-18T16:57:53;98666.09;;;9.47;94.41
59106;BME280;44891;50.204;8.132;2023-02-18T17:01:55;98662.28;;;9.43;94.34
59106;BME280;44891;50.204;8.132;2023-02-18T17:05:58;98679.63;;;9.44;94.63
59106;BME280;44891;50.204;8.132;2023-02-18T17:10:00;98685.69;;;9.44;94.42
59106;BME280;44891;50.204;8.132;2023-02-18T17:14:02;98679.44;;;9.45;94.22
59106;BME280;44891;50.204;8.132;2023-02-18T17:18:04;98677.38;;;9.47;94.56
59106;BME280;44891;50.204;8.132;2023-02-18T17:22:08;98672.72;;;9.49;93.52
59106;BME280;44891;50.204;8.132;2023-02-18T17:26:11;98683.56;;;9.53;92.86
59106;BME280;44891;50.204;8.132;2023-02-18T17:30:14;98675.69;;;9.53;92.92
59106;BME280;44891;50.204;8.132;2023-02-18T17:34:19;98686.41;;;9.51;94.25
59106;BME280;44891;50.204;8.132;2023-02-18T17:38:24;98693.03;;;9.54;93.78
59106;BME280;44891;50.204;8.132;2023-02-18T17:42:26;98700.97;;;9.47;94.32
59106;BME280;44891;50.204;8.132;2023-02-18T17:46:28;98700.88;;;9.36;94.75
59106;BME280;44891;50.204;8.132;2023-02-18T17:50:30;98701.03;;;9.41;93.87
59106;BME280;44891;50.204;8.132;2023-02-18T17:54:34;98702.50;;;9.37;93.86
59106;BME280;44891;50.204;8.132;2023-02-18T17:58:35;98703.44;;;9.42;93.58
59106;BME280;44891;50.204;8.132;2023-02-18T18:02:37;98717.78;;;9.40;93.29
59106;BME280;44891;50.204;8.132;2023-02-18T18:06:39;98718.59;;;9.40;93.23
59106;BME280;44891;50.204;8.132;2023-02-18T18:10:45;98718.38;;;9.42;92.92
59106;BME280;44891;50.204;8.132;2023-02-18T18:14:48;98714.53;;;9.44;93.43
59106;BME280;44891;50.204;8.132;2023-02-18T18:18:50;98719.00;;;9.37;93.61
59106;BME280;44891;50.204;8.132;2023-02-18T18:22:53;98723.84;;;9.40;94.27
59106;BME280;44891;50.204;8.132;2023-02-18T18:26:56;98712.16;;;9.36;93.79
59106;BME280;44891;50.204;8.132;2023-02-18T18:30:58;98716.78;;;9.41;93.87
59106;BME280;44891;50.204;8.132;2023-02-18T18:35:01;98714.00;;;9.36;94.13
59106;BME280;44891;50.204;8.132;2023-02-18T18:39:03;98715.47;;;9.32;94.50
59106;BME280;44891;50.204;8.132;2023-02-18T18:43:06;98722.88;;;9.35;94.68
59106;BME280;44891;50.204;8.132;2023-02-18T18:47:08;98715.47;;;9.32;95.11
59106;BME280;44891;50.204;8.132;2023-02-18T18:51:11;98719.00;;;9.37;95.59
59106;BME280;44891;50.204;8.132;2023-02-18T18:55:20;98707.38;;;9.33;96.08
59106;BME280;44891;50.204;8.132;2023-02-18T18:59:24;98708.72;;;9.17;98.24
59106;BME280;44891;50.204;8.132;2023-02-18T19:03:26;98709.97;;;9.15;99.18
59106;BME280;44891;50.204;8.132;2023-02-18T19:07:28;98711.00;;;9.14;100.00
59106;BME280;44891;50.204;8.132;2023-02-18T19:11:30;98718.97;;;9.01;100.00
59106;BME280;44891;50.204;8.132;2023-02-18T19:15:34;98723.09;;;8.90;100.00
59106;BME280;44891;50.204;8.132;2023-02-18T19:19:35;98721.72;;;8.87;100.00
59106;BME280;44891;50.204;8.132;2023-02-18T19:23:37;98725.50;;;8.91;100.00
59106;BME280;44891;50.204;8.132;2023-02-18T19:27:40;98719.88;;;8.88;100.00
59106;BME280;44891;50.204;8.132;2023-02-18T19:31:44;98718.88;;;8.89;100.00
59106;BME280;44891;50.204;8.132;2023-02-18T19:35:46;98717.59;;;8.98;100.00
59106;BME280;44891;50.204;8.132;2023-02-18T19:39:47;98705.06;;;9.00;100.00
59106;BME280;44891;50.204;8.132;2023-02-18T19:43:49;98706.50;;;8.96;100.00
59106;BME280;44891;50.204;8.132;2023-02-18T19:47:53;98710.53;;;8.98;100.00
59106;BME280;44891;50.204;8.132;2023-02-18T19:51:55;98714.38;;;8.96;100.00
59106;BME280;44891;50.204;8.132;2023-02-18T19:56:03;98709.47;;;9.06;100.00
59106;BME280;44891;50.204;8.132;2023-02-18T20:00:07;98704.06;;;9.01;100.00
59106;BME280;44891;50.204;8.132;2023-02-18T20:04:16;98707.25;;;9.03;100.00
59106;BME280;44891;50.204;8.132;2023-02-18T20:08:18;98696.03;;;8.96;100.00
59106;BME280;44891;50.204;8.132;2023-02-18T20:12:20;98689.34;;;9.00;99.16
59106;BME280;44891;50.204;8.132;2023-02-18T20:16:22;98698.97;;;9.06;98.58
59106;BME280;44891;50.204;8.132;2023-02-18T20:20:25;98698.91;;;9.13;98.38
59106;BME280;44891;50.204;8.132;2023-02-18T20:24:28;98694.69;;;9.12;98.24
59106;BME280;44891;50.204;8.132;2023-02-18T20:28:30;98685.03;;;9.12;97.63
59106;BME280;44891;50.204;8.132;2023-02-18T20:32:33;98685.59;;;9.14;97.56
59106;BME280;44891;50.204;8.132;2023-02-18T20:36:36;98689.00;;;9.15;97.53
59106;BME280;44891;50.204;8.132;2023-02-18T20:40:38;98681.78;;;9.10;98.12
59106;BME280;44891;50.204;8.132;2023-02-18T20:44:40;98670.25;;;9.18;97.81
59106;BME280;44891;50.204;8.132;2023-02-18T20:48:42;98668.84;;;9.15;97.78
59106;BME280;44891;50.204;8.132;2023-02-18T20:52:45;98665.19;;;9.16;97.61
59106;BME280;44891;50.204;8.132;2023-02-18T20:56:47;98659.38;;;9.14;97.75
59106;BME280;44891;50.204;8.132;2023-02-18T21:00:55;98655.53;;;9.17;97.09
59106;BME280;44891;50.204;8.132;2023-02-18T21:04:56;98652.09;;;9.16;97.16
59106;BME280;44891;50.204;8.132;2023-02-18T21:09:00;98658.53;;;9.20;96.31
59106;BME280;44891;50.204;8.132;2023-02-18T21:13:01;98653.84;;;9.22;96.53
59106;BME280;44891;50.204;8.132;2023-02-18T21:17:03;98656.47;;;9.22;96.29
59106;BME280;44891;50.204;8.132;2023-02-18T21:21:06;98653.50;;;9.19;96.80
59106;BME280;44891;50.204;8.132;2023-02-18T21:25:09;98649.84;;;9.20;96.66
59106;BME280;44891;50.204;8.132;2023-02-18T21:29:12;98648.84;;;9.21;96.89
59106;BME280;44891;50.204;8.132;2023-02-18T21:33:14;98650.66;;;9.20;96.94
59106;BME280;44891;50.204;8.132;2023-02-18T21:37:16;98641.13;;;9.26;96.29
59106;BME280;44891;50.204;8.132;2023-02-18T21:41:19;98641.34;;;9.24;96.67
59106;BME280;44891;50.204;8.132;2023-02-18T21:45:21;98637.72;;;9.25;96.65
59106;BME280;44891;50.204;8.132;2023-02-18T21:49:23;98634.28;;;9.25;96.97
59106;BME280;44891;50.204;8.132;2023-02-18T21:53:24;98628.44;;;9.23;96.30
59106;BME280;44891;50.204;8.132;2023-02-18T21:57:28;98634.72;;;9.22;96.79
59106;BME280;44891;50.204;8.132;2023-02-18T22:01:29;98628.81;;;9.26;96.92
59106;BME280;44891;50.204;8.132;2023-02-18T22:05:31;98626.06;;;9.21;97.38